Ko Samui, Thailand

5:43 AM ICT on August 31, 2015 (GMT +0700)
Samui | | Change Station
CLOSE
Current Station
Airport
Location: Samui,
Elevation: 66 ft
Nearby Weather Stations

Elev 66 ft 9.55 °N, 100.06 °E | Updated 7 hours ago

Mostly Cloudy
Mostly Cloudy
84 °F
Feels Like 92 °F
N
3
Wind Variable Wind from WSW
Gusts mph

Today
High -- | Low -- °F
--% Chance of Precip.
Yesterday
High -- | Low -- °F
Precip. -- in
6:10 AM 6:29 PM
Full, 98% visible
Pressure 29.92 in
Visibility 4.3 miles
Clouds Few 2000 ft
Scattered Clouds 12000 ft
Mostly Cloudy 30000 ft
Heat Index 92 °F
Dew Point 75 °F
Humidity 75%
Rainfall 0.00 in
Snow Depth Not available.
UV 0 out of 12
Pollen Not available.
Air Quality Not available.
Flu Activity Not available.
METAR VTSM 301500Z 00000KT 7000 FEW020CB SCT120 BKN300 27/25 Q1013 A2994
Pressure 29.92 in
Visibility 4.3 miles
Clouds Few 2000 ft
Scattered Clouds 12000 ft
Mostly Cloudy 30000 ft
Heat Index 92 °F
Dew Point 75 °F
Humidity 75%
Rainfall 0.00 in
Snow Depth Not available.
UV 0 out of 12
Pollen Not available.
Air Quality Not available.
Flu Activity Not available.
METAR VTSM 301500Z 00000KT 7000 FEW020CB SCT120 BKN300 27/25 Q1013 A2994

10-Day Weather Forecast

×

Almanac

Astronomy

Aug. 31, 2015 Rise Set
Actual Time
Civil Twilight
Nautical Twilight
Astronomical Twilight
Moon
Length of Visible Light
Length of Day
Tomorrow will be .
, % of the Moon is Illuminated

Today's Extremes

Country Highs Country Lows

Community

WunderPhotos

Upload Photos

1,851,075 photos uploaded!

WunderBlogs® & News

Nearby

Air Quality

  Air Quality AQ Index Pollutant
Not available.

Snow Depth

Station Depth Elevation

Earthquake Activity

City Distance Mag. Time & Date
Minimum magnitude displayed is 2.5.

Coastal Water Temperatures

Place Temperature

Stations

Nearby Weather Stations

Station Location Temp. Windchill Dew Point Humidity Wind Precip. Elev Updated Type